sensor_id;sensor_type;location;lat;lon;timestamp;pressure;altitude;pressure_sealevel;temperature;humidity
61537;BME280;48695;53.480;-6.300;2023-02-22T00:01:09;100302.50;;;10.62;69.04
61537;BME280;48695;53.480;-6.300;2023-02-22T00:03:47;100325.56;;;10.78;68.72
61537;BME280;48695;53.480;-6.300;2023-02-22T00:06:16;100330.91;;;10.75;69.30
61537;BME280;48695;53.480;-6.300;2023-02-22T00:08:42;100341.34;;;10.75;68.80
61537;BME280;48695;53.480;-6.300;2023-02-22T00:11:08;100361.41;;;10.73;68.85
61537;BME280;48695;53.480;-6.300;2023-02-22T00:13:35;100368.38;;;10.72;68.61
61537;BME280;48695;53.480;-6.300;2023-02-22T00:16:01;100362.50;;;10.65;68.79
61537;BME280;48695;53.480;-6.300;2023-02-22T00:18:27;100365.16;;;10.62;68.49
61537;BME280;48695;53.480;-6.300;2023-02-22T00:20:58;100357.53;;;10.56;68.83
61537;BME280;48695;53.480;-6.300;2023-02-22T00:23:26;100364.56;;;10.54;68.92
61537;BME280;48695;53.480;-6.300;2023-02-22T00:25:53;100373.34;;;10.50;69.35
61537;BME280;48695;53.480;-6.300;2023-02-22T00:28:19;100376.09;;;10.46;68.76
61537;BME280;48695;53.480;-6.300;2023-02-22T00:30:44;100378.81;;;10.41;68.74
61537;BME280;48695;53.480;-6.300;2023-02-22T00:33:14;100380.59;;;10.39;68.66
61537;BME280;48695;53.480;-6.300;2023-02-22T00:35:40;100388.59;;;10.33;68.15
61537;BME280;48695;53.480;-6.300;2023-02-22T00:38:10;100393.09;;;10.28;68.36
61537;BME280;48695;53.480;-6.300;2023-02-22T00:40:36;100394.06;;;10.22;68.51
61537;BME280;48695;53.480;-6.300;2023-02-22T00:43:03;100405.47;;;10.20;68.42
61537;BME280;48695;53.480;-6.300;2023-02-22T00:45:31;100414.31;;;10.14;68.20
61537;BME280;48695;53.480;-6.300;2023-02-22T00:47:57;100383.41;;;9.99;68.03
61537;BME280;48695;53.480;-6.300;2023-02-22T00:50:24;100403.25;;;10.04;68.07
61537;BME280;48695;53.480;-6.300;2023-02-22T00:52:51;100405.03;;;10.02;68.26
61537;BME280;48695;53.480;-6.300;2023-02-22T00:55:20;100407.75;;;9.98;68.45
61537;BME280;48695;53.480;-6.300;2023-02-22T00:57:46;100410.47;;;9.93;67.83
61537;BME280;48695;53.480;-6.300;2023-02-22T01:00:18;100422.69;;;9.91;67.95
61537;BME280;48695;53.480;-6.300;2023-02-22T01:02:44;100423.66;;;9.87;68.09
61537;BME280;48695;53.480;-6.300;2023-02-22T01:05:12;100422.00;;;9.83;68.17
61537;BME280;48695;53.480;-6.300;2023-02-22T01:07:38;100412.84;;;9.68;67.96
61537;BME280;48695;53.480;-6.300;2023-02-22T01:10:04;100436.16;;;9.73;68.38
61537;BME280;48695;53.480;-6.300;2023-02-22T01:12:30;100434.53;;;9.69;68.03
61537;BME280;48695;53.480;-6.300;2023-02-22T01:14:55;100419.06;;;9.61;68.50
61537;BME280;48695;53.480;-6.300;2023-02-22T01:17:23;100409.69;;;9.52;68.07
61537;BME280;48695;53.480;-6.300;2023-02-22T01:19:50;100439.81;;;9.66;68.10
61537;BME280;48695;53.480;-6.300;2023-02-22T01:22:15;100446.75;;;9.67;67.97
61537;BME280;48695;53.480;-6.300;2023-02-22T01:24:41;100449.41;;;9.65;68.44
61537;BME280;48695;53.480;-6.300;2023-02-22T01:27:06;100442.47;;;9.62;68.10
61537;BME280;48695;53.480;-6.300;2023-02-22T01:29:32;100438.25;;;9.58;68.42
61537;BME280;48695;53.480;-6.300;2023-02-22T01:31:57;100449.53;;;9.59;68.86
61537;BME280;48695;53.480;-6.300;2023-02-22T01:34:23;100450.44;;;9.58;67.99
61537;BME280;48695;53.480;-6.300;2023-02-22T01:36:50;100457.38;;;9.57;67.73
61537;BME280;48695;53.480;-6.300;2023-02-22T01:39:16;100445.38;;;9.50;67.98
61537;BME280;48695;53.480;-6.300;2023-02-22T01:41:45;100458.38;;;9.53;67.86
61537;BME280;48695;53.480;-6.300;2023-02-22T01:44:17;100460.16;;;9.50;67.55
61537;BME280;48695;53.480;-6.300;2023-02-22T01:46:43;100457.66;;;9.45;67.36
61537;BME280;48695;53.480;-6.300;2023-02-22T01:49:09;100454.28;;;9.40;67.75
61537;BME280;48695;53.480;-6.300;2023-02-22T01:51:37;100455.34;;;9.31;68.14
61537;BME280;48695;53.480;-6.300;2023-02-22T01:54:17;100470.06;;;9.34;67.93
61537;BME280;48695;53.480;-6.300;2023-02-22T01:56:48;100427.31;;;9.02;67.78
61537;BME280;48695;53.480;-6.300;2023-02-22T01:59:15;100475.41;;;9.28;68.04
61537;BME280;48695;53.480;-6.300;2023-02-22T02:01:42;100471.16;;;9.24;68.03
61537;BME280;48695;53.480;-6.300;2023-02-22T02:04:15;100476.31;;;9.25;67.88
61537;BME280;48695;53.480;-6.300;2023-02-22T02:06:42;100473.81;;;9.21;67.66
61537;BME280;48695;53.480;-6.300;2023-02-22T02:09:26;100459.22;;;9.12;67.27
61537;BME280;48695;53.480;-6.300;2023-02-22T02:11:55;100450.75;;;9.02;67.62
61537;BME280;48695;53.480;-6.300;2023-02-22T02:14:21;100459.44;;;9.03;67.51
61537;BME280;48695;53.480;-6.300;2023-02-22T02:16:49;100476.59;;;9.12;67.54
61537;BME280;48695;53.480;-6.300;2023-02-22T02:19:31;100484.41;;;9.12;67.70
61537;BME280;48695;53.480;-6.300;2023-02-22T02:33:18;100496.78;;;9.00;66.97
61537;BME280;48695;53.480;-6.300;2023-02-22T02:35:59;100494.28;;;8.96;67.68
61537;BME280;48695;53.480;-6.300;2023-02-22T02:38:33;100496.97;;;8.91;67.98
61537;BME280;48695;53.480;-6.300;2023-02-22T02:41:14;100501.38;;;8.89;67.76
61537;BME280;48695;53.480;-6.300;2023-02-22T02:46:13;100482.63;;;8.70;67.56
61537;BME280;48695;53.480;-6.300;2023-02-22T02:49:26;100479.25;;;8.65;67.86
61537;BME280;48695;53.480;-6.300;2023-02-22T02:51:41;100502.53;;;8.73;67.86
61537;BME280;48695;53.480;-6.300;2023-02-22T02:54:09;100488.78;;;8.65;68.38
61537;BME280;48695;53.480;-6.300;2023-02-22T02:56:35;100467.28;;;8.55;68.19
61537;BME280;48695;53.480;-6.300;2023-02-22T02:59:01;100426.16;;;8.24;68.45
61537;BME280;48695;53.480;-6.300;2023-02-22T03:01:48;100448.41;;;8.44;67.90
61537;BME280;48695;53.480;-6.300;2023-02-22T03:07:22;100503.34;;;8.75;67.77
61537;BME280;48695;53.480;-6.300;2023-02-22T03:12:51;100511.16;;;8.75;67.34
61537;BME280;48695;53.480;-6.300;2023-02-22T03:18:27;100506.91;;;8.72;67.65
61537;BME280;48695;53.480;-6.300;2023-02-22T03:23:36;100502.63;;;8.67;67.77
61537;BME280;48695;53.480;-6.300;2023-02-22T03:26:04;100499.25;;;8.62;67.65
61537;BME280;48695;53.480;-6.300;2023-02-22T03:28:32;100494.13;;;8.58;67.48
61537;BME280;48695;53.480;-6.300;2023-02-22T03:31:14;100482.06;;;8.51;67.23
61537;BME280;48695;53.480;-6.300;2023-02-22T03:33:44;100508.06;;;8.54;67.54
61537;BME280;48695;53.480;-6.300;2023-02-22T03:36:21;100491.72;;;8.48;67.10
61537;BME280;48695;53.480;-6.300;2023-02-22T03:38:49;100503.94;;;8.43;67.81
61537;BME280;48695;53.480;-6.300;2023-02-22T03:41:22;100497.97;;;8.36;67.65
61537;BME280;48695;53.480;-6.300;2023-02-22T03:43:58;100511.75;;;8.41;67.12
61537;BME280;48695;53.480;-6.300;2023-02-22T03:46:26;100511.81;;;8.35;67.78
61537;BME280;48695;53.480;-6.300;2023-02-22T03:48:58;100463.75;;;8.05;67.92
61537;BME280;48695;53.480;-6.300;2023-02-22T03:51:27;100500.88;;;8.16;67.95
61537;BME280;48695;53.480;-6.300;2023-02-22T03:53:53;100494.78;;;8.16;68.19
61537;BME280;48695;53.480;-6.300;2023-02-22T03:56:25;100532.69;;;8.33;68.16
61537;BME280;48695;53.480;-6.300;2023-02-22T03:58:53;100534.47;;;8.30;68.04
61537;BME280;48695;53.480;-6.300;2023-02-22T04:01:18;100533.56;;;8.31;68.22
61537;BME280;48695;53.480;-6.300;2023-02-22T04:03:44;100524.16;;;8.24;68.03
61537;BME280;48695;53.480;-6.300;2023-02-22T04:06:10;100536.13;;;8.34;67.93
61537;BME280;48695;53.480;-6.300;2023-02-22T04:08:36;100530.09;;;8.30;68.39
61537;BME280;48695;53.480;-6.300;2023-02-22T04:11:01;100545.69;;;8.37;68.40
61537;BME280;48695;53.480;-6.300;2023-02-22T04:13:27;100537.84;;;8.38;68.38
61537;BME280;48695;53.480;-6.300;2023-02-22T04:15:52;100528.31;;;8.34;67.87
61537;BME280;48695;53.480;-6.300;2023-02-22T04:18:18;100541.25;;;8.40;67.72
61537;BME280;48695;53.480;-6.300;2023-02-22T04:20:44;100532.63;;;8.38;68.39
61537;BME280;48695;53.480;-6.300;2023-02-22T04:23:09;100548.19;;;8.43;68.18
61537;BME280;48695;53.480;-6.300;2023-02-22T04:25:35;100542.94;;;8.44;68.68
61537;BME280;48695;53.480;-6.300;2023-02-22T04:28:01;100535.25;;;8.35;68.21
61537;BME280;48695;53.480;-6.300;2023-02-22T04:30:27;100556.78;;;8.46;68.17
61537;BME280;48695;53.480;-6.300;2023-02-22T04:32:54;100551.56;;;8.46;68.54
61537;BME280;48695;53.480;-6.300;2023-02-22T04:35:20;100542.97;;;8.41;68.37
61537;BME280;48695;53.480;-6.300;2023-02-22T04:37:46;100515.53;;;8.22;68.83
61537;BME280;48695;53.480;-6.300;2023-02-22T04:40:11;100545.69;;;8.37;68.40
61537;BME280;48695;53.480;-6.300;2023-02-22T04:42:37;100556.84;;;8.43;68.20
61537;BME280;48695;53.480;-6.300;2023-02-22T04:45:05;100558.56;;;8.44;68.31
61537;BME280;48695;53.480;-6.300;2023-02-22T04:47:32;100556.88;;;8.40;68.27
61537;BME280;48695;53.480;-6.300;2023-02-22T04:49:58;100571.59;;;8.43;67.95
61537;BME280;48695;53.480;-6.300;2023-02-22T04:52:25;100575.94;;;8.42;68.53
61537;BME280;48695;53.480;-6.300;2023-02-22T04:54:50;100567.28;;;8.40;68.12
61537;BME280;48695;53.480;-6.300;2023-02-22T04:57:16;100577.69;;;8.40;68.50
61537;BME280;48695;53.480;-6.300;2023-02-22T04:59:41;100571.66;;;8.35;68.05
61537;BME280;48695;53.480;-6.300;2023-02-22T05:02:07;100570.84;;;8.33;68.22
61537;BME280;48695;53.480;-6.300;2023-02-22T05:04:32;100562.28;;;8.26;68.01
61537;BME280;48695;53.480;-6.300;2023-02-22T05:06:58;100589.03;;;8.38;67.68
61537;BME280;48695;53.480;-6.300;2023-02-22T05:09:23;100584.75;;;8.32;67.27
61537;BME280;48695;53.480;-6.300;2023-02-22T05:11:48;100598.50;;;8.40;67.27
61537;BME280;48695;53.480;-6.300;2023-02-22T05:14:14;100593.38;;;8.37;67.24
61537;BME280;48695;53.480;-6.300;2023-02-22T05:16:39;100605.50;;;8.35;67.00
61537;BME280;48695;53.480;-6.300;2023-02-22T05:19:05;100585.75;;;8.22;67.03
61537;BME280;48695;53.480;-6.300;2023-02-22T05:21:30;100611.63;;;8.32;67.02
61537;BME280;48695;53.480;-6.300;2023-02-22T05:23:56;100622.88;;;8.33;66.92
61537;BME280;48695;53.480;-6.300;2023-02-22T05:26:22;100605.63;;;8.26;66.58
61537;BME280;48695;53.480;-6.300;2023-02-22T05:28:47;100615.97;;;8.32;66.93
61537;BME280;48695;53.480;-6.300;2023-02-22T05:31:12;100598.78;;;8.20;66.73
61537;BME280;48695;53.480;-6.300;2023-02-22T05:33:38;100622.97;;;8.27;66.71
61537;BME280;48695;53.480;-6.300;2023-02-22T05:36:04;100598.88;;;8.14;66.78
61537;BME280;48695;53.480;-6.300;2023-02-22T05:38:29;100630.75;;;8.28;66.64
61537;BME280;48695;53.480;-6.300;2023-02-22T05:40:55;100625.63;;;8.22;66.46
61537;BME280;48695;53.480;-6.300;2023-02-22T05:43:21;100637.00;;;8.17;66.48
61537;BME280;48695;53.480;-6.300;2023-02-22T05:45:46;100627.53;;;8.10;66.70
61537;BME280;48695;53.480;-6.300;2023-02-22T05:48:12;100637.94;;;8.10;66.33
61537;BME280;48695;53.480;-6.300;2023-02-22T05:50:37;100653.44;;;8.19;66.71
61537;BME280;48695;53.480;-6.300;2023-02-22T05:53:03;100655.22;;;8.14;66.32
61537;BME280;48695;53.480;-6.300;2023-02-22T05:55:30;100637.19;;;8.00;66.48
61537;BME280;48695;53.480;-6.300;2023-02-22T05:57:55;100676.00;;;8.15;66.26
61537;BME280;48695;53.480;-6.300;2023-02-22T06:00:26;100680.34;;;8.15;66.24
61537;BME280;48695;53.480;-6.300;2023-02-22T06:02:59;100671.72;;;8.13;65.85
61537;BME280;48695;53.480;-6.300;2023-02-22T06:05:25;100677.84;;;8.09;65.65
61537;BME280;48695;53.480;-6.300;2023-02-22T06:07:50;100679.59;;;8.05;65.70
61537;BME280;48695;53.480;-6.300;2023-02-22T06:10:16;100613.41;;;7.63;65.96
61537;BME280;48695;53.480;-6.300;2023-02-22T06:12:42;100679.72;;;7.97;65.41
61537;BME280;48695;53.480;-6.300;2023-02-22T06:15:09;100684.13;;;7.92;65.36
61537;BME280;48695;53.480;-6.300;2023-02-22T06:17:34;100679.84;;;7.87;65.66
61537;BME280;48695;53.480;-6.300;2023-02-22T06:20:01;100679.91;;;7.82;65.47
61537;BME280;48695;53.480;-6.300;2023-02-22T06:22:26;100680.81;;;7.78;65.64
61537;BME280;48695;53.480;-6.300;2023-02-22T06:24:52;100689.53;;;7.74;65.57
61537;BME280;48695;53.480;-6.300;2023-02-22T06:27:17;100684.41;;;7.65;65.64
61537;BME280;48695;53.480;-6.300;2023-02-22T06:29:46;100675.81;;;7.60;65.68
61537;BME280;48695;53.480;-6.300;2023-02-22T06:32:12;100692.25;;;7.63;65.69
61537;BME280;48695;53.480;-6.300;2023-02-22T06:34:38;100646.66;;;7.33;65.80
61537;BME280;48695;53.480;-6.300;2023-02-22T06:37:06;100702.72;;;7.57;66.22
61537;BME280;48695;53.480;-6.300;2023-02-22T06:39:31;100701.88;;;7.53;66.10
61537;BME280;48695;53.480;-6.300;2023-02-22T06:41:58;100706.22;;;7.51;66.19
61537;BME280;48695;53.480;-6.300;2023-02-22T06:44:23;100686.44;;;7.38;66.29
61537;BME280;48695;53.480;-6.300;2023-02-22T06:46:49;100683.91;;;7.32;66.08
61537;BME280;48695;53.480;-6.300;2023-02-22T06:49:15;100714.09;;;7.45;66.50
61537;BME280;48695;53.480;-6.300;2023-02-22T06:51:41;100721.00;;;7.46;66.35
61537;BME280;48695;53.480;-6.300;2023-02-22T06:54:07;100636.63;;;6.99;66.46
61537;BME280;48695;53.480;-6.300;2023-02-22T06:56:32;100625.38;;;6.96;66.35
61537;BME280;48695;53.480;-6.300;2023-02-22T06:58:58;100709.69;;;7.49;66.60
61537;BME280;48695;53.480;-6.300;2023-02-22T07:01:23;100709.69;;;7.49;66.68
61537;BME280;48695;53.480;-6.300;2023-02-22T07:03:49;100711.44;;;7.48;66.59
61537;BME280;48695;53.480;-6.300;2023-02-22T07:06:14;100726.13;;;7.52;66.73
61537;BME280;48695;53.480;-6.300;2023-02-22T07:08:39;100708.06;;;7.40;66.63
61537;BME280;48695;53.480;-6.300;2023-02-22T07:11:05;100731.34;;;7.52;66.26
61537;BME280;48695;53.480;-6.300;2023-02-22T07:13:30;100739.13;;;7.52;66.82
61537;BME280;48695;53.480;-6.300;2023-02-22T07:15:56;100734.81;;;7.51;66.65
61537;BME280;48695;53.480;-6.300;2023-02-22T07:18:21;100723.66;;;7.40;66.94
61537;BME280;48695;53.480;-6.300;2023-02-22T07:20:48;100721.06;;;7.39;66.75
61537;BME280;48695;53.480;-6.300;2023-02-22T07:23:14;100739.13;;;7.49;66.48
61537;BME280;48695;53.480;-6.300;2023-02-22T07:25:40;100737.44;;;7.47;66.27
61537;BME280;48695;53.480;-6.300;2023-02-22T07:28:06;100633.28;;;6.82;66.36
61537;BME280;48695;53.480;-6.300;2023-02-22T07:30:32;100739.22;;;7.43;66.73
61537;BME280;48695;53.480;-6.300;2023-02-22T07:33:03;100747.03;;;7.40;66.52
61537;BME280;48695;53.480;-6.300;2023-02-22T07:35:45;100763.47;;;7.39;66.30
61537;BME280;48695;53.480;-6.300;2023-02-22T07:38:12;100764.41;;;7.35;66.31
61537;BME280;48695;53.480;-6.300;2023-02-22T07:40:38;100760.09;;;7.31;66.36
61537;BME280;48695;53.480;-6.300;2023-02-22T07:43:04;100767.03;;;7.31;66.28
61537;BME280;48695;53.480;-6.300;2023-02-22T07:45:32;100769.63;;;7.32;66.46
61537;BME280;48695;53.480;-6.300;2023-02-22T07:47:58;100763.59;;;7.27;66.06
61537;BME280;48695;53.480;-6.300;2023-02-22T07:50:27;100772.25;;;7.27;65.90
61537;BME280;48695;53.480;-6.300;2023-02-22T07:52:56;100771.41;;;7.24;66.34
61537;BME280;48695;53.480;-6.300;2023-02-22T07:55:26;100781.84;;;7.18;66.26
61537;BME280;48695;53.480;-6.300;2023-02-22T07:57:54;100784.47;;;7.16;66.33
61537;BME280;48695;53.480;-6.300;2023-02-22T08:00:28;100781.00;;;7.14;66.54
61537;BME280;48695;53.480;-6.300;2023-02-22T08:02:54;100776.72;;;7.12;66.54
61537;BME280;48695;53.480;-6.300;2023-02-22T08:05:22;100785.38;;;7.11;66.70
61537;BME280;48695;53.480;-6.300;2023-02-22T08:07:48;100776.75;;;7.06;66.85
61537;BME280;48695;53.480;-6.300;2023-02-22T08:10:16;100783.66;;;7.10;66.63
61537;BME280;48695;53.480;-6.300;2023-02-22T08:12:41;100767.25;;;7.01;66.80
61537;BME280;48695;53.480;-6.300;2023-02-22T08:15:13;100773.28;;;7.03;66.65
61537;BME280;48695;53.480;-6.300;2023-02-22T08:17:39;100785.38;;;7.08;66.40
61537;BME280;48695;53.480;-6.300;2023-02-22T08:20:05;100744.06;;;6.77;66.71
61537;BME280;48695;53.480;-6.300;2023-02-22T08:22:31;100780.22;;;7.05;66.48
61537;BME280;48695;53.480;-6.300;2023-02-22T08:24:56;100791.47;;;7.03;66.92
61537;BME280;48695;53.480;-6.300;2023-02-22T08:27:26;100793.19;;;7.06;66.73
61537;BME280;48695;53.480;-6.300;2023-02-22T08:29:52;100776.81;;;6.96;67.10
61537;BME280;48695;53.480;-6.300;2023-02-22T08:32:19;100797.53;;;7.06;66.90
61537;BME280;48695;53.480;-6.300;2023-02-22T08:34:45;100813.03;;;7.13;66.99
61537;BME280;48695;53.480;-6.300;2023-02-22T08:37:11;100807.81;;;7.21;67.20
61537;BME280;48695;53.480;-6.300;2023-02-22T08:39:37;100823.28;;;7.33;67.06
61537;BME280;48695;53.480;-6.300;2023-02-22T08:42:02;100822.34;;;7.46;67.26
61537;BME280;48695;53.480;-6.300;2023-02-22T08:44:28;100826.56;;;7.55;67.32
61537;BME280;48695;53.480;-6.300;2023-02-22T08:46:53;100824.72;;;7.71;66.74
61537;BME280;48695;53.480;-6.300;2023-02-22T08:49:19;100815.97;;;7.81;66.99
61537;BME280;48695;53.480;-6.300;2023-02-22T08:51:45;100820.09;;;8.00;66.93
61537;BME280;48695;53.480;-6.300;2023-02-22T08:54:11;100815.59;;;8.15;67.41
61537;BME280;48695;53.480;-6.300;2023-02-22T08:56:36;100821.53;;;8.26;66.54
61537;BME280;48695;53.480;-6.300;2023-02-22T08:59:01;100815.38;;;8.39;66.59
61537;BME280;48695;53.480;-6.300;2023-02-22T09:01:27;100823.91;;;8.50;66.06
61537;BME280;48695;53.480;-6.300;2023-02-22T09:03:53;100822.00;;;8.65;65.56
61537;BME280;48695;53.480;-6.300;2023-02-22T09:06:21;100828.78;;;8.78;65.80
61537;BME280;48695;53.480;-6.300;2023-02-22T09:08:46;100823.47;;;8.84;64.90
61537;BME280;48695;53.480;-6.300;2023-02-22T09:11:11;100830.38;;;8.88;64.63
61537;BME280;48695;53.480;-6.300;2023-02-22T09:13:37;100802.72;;;8.78;65.11
61537;BME280;48695;53.480;-6.300;2023-02-22T09:16:02;100837.16;;;9.00;64.67
61537;BME280;48695;53.480;-6.300;2023-02-22T09:18:28;100823.06;;;9.12;64.40
61537;BME280;48695;53.480;-6.300;2023-02-22T09:20:54;100832.41;;;9.26;64.78
61537;BME280;48695;53.480;-6.300;2023-02-22T09:23:20;100811.38;;;9.39;64.71
61537;BME280;48695;53.480;-6.300;2023-02-22T09:25:49;100831.84;;;9.63;63.89
61537;BME280;48695;53.480;-6.300;2023-02-22T09:28:14;100828.97;;;9.77;63.79
61537;BME280;48695;53.480;-6.300;2023-02-22T09:30:40;100836.50;;;9.95;63.87
61537;BME280;48695;53.480;-6.300;2023-02-22T09:33:08;100842.25;;;10.12;62.95
61537;BME280;48695;53.480;-6.300;2023-02-22T09:35:35;100841.94;;;10.31;62.78
61537;BME280;48695;53.480;-6.300;2023-02-22T09:38:01;100836.47;;;10.43;62.12
61537;BME280;48695;53.480;-6.300;2023-02-22T09:40:29;100821.53;;;10.51;61.97
61537;BME280;48695;53.480;-6.300;2023-02-22T09:46:20;100834.41;;;11.01;62.03
61537;BME280;48695;53.480;-6.300;2023-02-22T09:48:26;100829.84;;;11.10;61.42
61537;BME280;48695;53.480;-6.300;2023-02-22T09:50:57;100845.75;;;11.37;60.57
61537;BME280;48695;53.480;-6.300;2023-02-22T09:53:29;100852.34;;;11.53;60.41
61537;BME280;48695;53.480;-6.300;2023-02-22T09:56:11;100860.50;;;11.75;61.95
61537;BME280;48695;53.480;-6.300;2023-02-22T09:58:42;100844.81;;;11.75;59.80
61537;BME280;48695;53.480;-6.300;2023-02-22T10:01:26;100854.44;;;12.09;61.87
61537;BME280;48695;53.480;-6.300;2023-02-22T10:06:23;100843.63;;;12.21;58.16
61537;BME280;48695;53.480;-6.300;2023-02-22T10:08:53;100869.88;;;12.52;58.66
61537;BME280;48695;53.480;-6.300;2023-02-22T10:19:31;100881.63;;;13.28;57.89
61537;BME280;48695;53.480;-6.300;2023-02-22T10:25:01;100877.72;;;13.41;58.14
61537;BME280;48695;53.480;-6.300;2023-02-22T10:27:37;100894.31;;;13.41;56.56
61537;BME280;48695;53.480;-6.300;2023-02-22T10:30:07;100895.28;;;13.39;55.01
61537;BME280;48695;53.480;-6.300;2023-02-22T10:32:44;100898.91;;;13.35;55.09
61537;BME280;48695;53.480;-6.300;2023-02-22T10:35:20;100895.63;;;13.28;54.65
61537;BME280;48695;53.480;-6.300;2023-02-22T10:37:48;100890.75;;;13.14;54.20
61537;BME280;48695;53.480;-6.300;2023-02-22T10:40:20;100901.31;;;13.11;53.40
61537;BME280;48695;53.480;-6.300;2023-02-22T10:42:48;100887.59;;;13.03;53.66
61537;BME280;48695;53.480;-6.300;2023-02-22T10:45:26;100889.78;;;12.89;56.02
61537;BME280;48695;53.480;-6.300;2023-02-22T10:47:54;100901.97;;;12.90;53.89
61537;BME280;48695;53.480;-6.300;2023-02-22T10:50:25;100904.72;;;12.85;54.70
61537;BME280;48695;53.480;-6.300;2023-02-22T10:52:53;100906.34;;;12.89;54.71
61537;BME280;48695;53.480;-6.300;2023-02-22T10:55:19;100894.56;;;13.04;55.79
61537;BME280;48695;53.480;-6.300;2023-02-22T10:57:47;100906.78;;;13.35;55.63
61537;BME280;48695;53.480;-6.300;2023-02-22T11:00:35;100906.09;;;13.83;60.15
61537;BME280;48695;53.480;-6.300;2023-02-22T11:03:19;100894.19;;;14.25;56.21
61537;BME280;48695;53.480;-6.300;2023-02-22T11:05:45;100908.19;;;14.51;53.36
61537;BME280;48695;53.480;-6.300;2023-02-22T11:10:53;100908.41;;;15.15;52.43
61537;BME280;48695;53.480;-6.300;2023-02-22T11:13:27;100907.63;;;15.37;52.01
61537;BME280;48695;53.480;-6.300;2023-02-22T11:16:00;100912.38;;;15.49;50.96
61537;BME280;48695;53.480;-6.300;2023-02-22T11:18:32;100901.75;;;15.52;51.47
61537;BME280;48695;53.480;-6.300;2023-02-22T11:21:05;100913.41;;;15.68;51.15
61537;BME280;48695;53.480;-6.300;2023-02-22T11:23:33;100925.53;;;15.72;48.86
61537;BME280;48695;53.480;-6.300;2023-02-22T11:26:08;100907.81;;;15.76;51.25
61537;BME280;48695;53.480;-6.300;2023-02-22T11:28:35;100916.59;;;15.76;48.47
61537;BME280;48695;53.480;-6.300;2023-02-22T11:31:21;100931.28;;;15.82;50.77
61537;BME280;48695;53.480;-6.300;2023-02-22T11:33:56;100919.16;;;15.78;49.92
61537;BME280;48695;53.480;-6.300;2023-02-22T11:36:41;100921.19;;;15.71;50.62
61537;BME280;48695;53.480;-6.300;2023-02-22T11:39:29;100933.00;;;15.60;51.11
61537;BME280;48695;53.480;-6.300;2023-02-22T11:42:17;100935.28;;;15.47;49.70
61537;BME280;48695;53.480;-6.300;2023-02-22T11:44:44;100939.66;;;15.24;46.84
61537;BME280;48695;53.480;-6.300;2023-02-22T11:47:11;100938.50;;;15.08;47.48
61537;BME280;48695;53.480;-6.300;2023-02-22T11:49:38;100940.94;;;14.91;47.86
61537;BME280;48695;53.480;-6.300;2023-02-22T11:52:50;100951.13;;;14.75;49.63
61537;BME280;48695;53.480;-6.300;2023-02-22T11:55:22;100952.66;;;14.57;49.99
61537;BME280;48695;53.480;-6.300;2023-02-22T12:23:29;100972.16;;;13.97;51.68
61537;BME280;48695;53.480;-6.300;2023-02-22T12:26:03;100977.53;;;13.94;49.92
61537;BME280;48695;53.480;-6.300;2023-02-22T12:28:33;100987.00;;;13.98;49.21
61537;BME280;48695;53.480;-6.300;2023-02-22T12:36:16;100975.69;;;13.96;49.05
61537;BME280;48695;53.480;-6.300;2023-02-22T12:38:49;100986.13;;;13.99;49.72
61537;BME280;48695;53.480;-6.300;2023-02-22T12:41:29;100983.16;;;14.08;50.58
61537;BME280;48695;53.480;-6.300;2023-02-22T12:44:09;100962.16;;;14.08;51.79
61537;BME280;48695;53.480;-6.300;2023-02-22T12:46:48;100980.03;;;14.23;50.63
61537;BME280;48695;53.480;-6.300;2023-02-22T12:52:31;100984.69;;;14.42;51.28
61537;BME280;48695;53.480;-6.300;2023-02-22T12:55:24;100998.59;;;14.44;50.78
61537;BME280;48695;53.480;-6.300;2023-02-22T12:57:57;100986.59;;;14.37;49.58
61537;BME280;48695;53.480;-6.300;2023-02-22T13:03:00;100995.41;;;14.36;48.38
61537;BME280;48695;53.480;-6.300;2023-02-22T13:05:33;100998.94;;;14.35;48.96
61537;BME280;48695;53.480;-6.300;2023-02-22T13:22:18;101009.31;;;13.85;50.01
61537;BME280;48695;53.480;-6.300;2023-02-22T13:25:01;101019.25;;;13.73;50.28
61537;BME280;48695;53.480;-6.300;2023-02-22T13:27:41;101013.50;;;13.62;49.51
61537;BME280;48695;53.480;-6.300;2023-02-22T13:42:02;101021.00;;;13.14;50.60
61537;BME280;48695;53.480;-6.300;2023-02-22T13:50:14;101026.56;;;13.03;50.91
61537;BME280;48695;53.480;-6.300;2023-02-22T13:52:47;101003.38;;;12.88;50.82
61537;BME280;48695;53.480;-6.300;2023-02-22T13:55:18;101034.50;;;13.00;50.98
61537;BME280;48695;53.480;-6.300;2023-02-22T13:57:46;101007.72;;;12.89;50.77
61537;BME280;48695;53.480;-6.300;2023-02-22T14:08:04;101037.78;;;13.08;50.61
61537;BME280;48695;53.480;-6.300;2023-02-22T14:10:52;101041.03;;;13.16;51.80
61537;BME280;48695;53.480;-6.300;2023-02-22T14:13:20;101032.34;;;13.14;50.97
61537;BME280;48695;53.480;-6.300;2023-02-22T14:18:26;101039.09;;;13.24;50.18
61537;BME280;48695;53.480;-6.300;2023-02-22T14:21:05;101043.34;;;13.29;51.50
61537;BME280;48695;53.480;-6.300;2023-02-22T14:23:42;101014.81;;;13.16;51.07
61537;BME280;48695;53.480;-6.300;2023-02-22T14:28:49;101051.03;;;13.35;50.16
61537;BME280;48695;53.480;-6.300;2023-02-22T14:31:18;101038.19;;;13.26;50.12
61537;BME280;48695;53.480;-6.300;2023-02-22T14:34:07;101054.38;;;13.40;50.94
61537;BME280;48695;53.480;-6.300;2023-02-22T14:39:43;101054.28;;;13.43;51.24
61537;BME280;48695;53.480;-6.300;2023-02-22T14:42:24;101049.00;;;13.44;50.00
61537;BME280;48695;53.480;-6.300;2023-02-22T14:45:00;101063.78;;;13.48;49.50
61537;BME280;48695;53.480;-6.300;2023-02-22T14:47:31;101067.88;;;13.57;49.69
61537;BME280;48695;53.480;-6.300;2023-02-22T14:50:18;101058.88;;;13.66;50.96
61537;BME280;48695;53.480;-6.300;2023-02-22T14:52:54;101070.16;;;13.69;49.37
61537;BME280;48695;53.480;-6.300;2023-02-22T14:55:23;101063.72;;;13.80;49.86
61537;BME280;48695;53.480;-6.300;2023-02-22T14:58:09;101072.13;;;13.91;50.87
61537;BME280;48695;53.480;-6.300;2023-02-22T15:00:40;101065.75;;;13.98;49.51
61537;BME280;48695;53.480;-6.300;2023-02-22T15:03:24;101072.31;;;14.13;50.15
61537;BME280;48695;53.480;-6.300;2023-02-22T15:05:52;101071.25;;;14.18;48.75